sensor_id;sensor_type;location;lat;lon;timestamp;P1;durP1;ratioP1;P2;durP2;ratioP2
36441;SDS011;64346;50.820;16.274;2023-03-01T00:01:27;189.50;;;93.68;;
36441;SDS011;64346;50.820;16.274;2023-03-01T00:03:57;149.95;;;75.00;;
36441;SDS011;64346;50.820;16.274;2023-03-01T00:06:27;185.45;;;92.18;;
36441;SDS011;64346;50.820;16.274;2023-03-01T00:08:56;180.75;;;90.00;;
36441;SDS011;64346;50.820;16.274;2023-03-01T00:11:26;194.68;;;93.03;;
36441;SDS011;64346;50.820;16.274;2023-03-01T00:13:56;182.23;;;87.47;;
36441;SDS011;64346;50.820;16.274;2023-03-01T00:16:34;170.40;;;84.78;;
36441;SDS011;64346;50.820;16.274;2023-03-01T00:19:04;174.18;;;84.43;;
36441;SDS011;64346;50.820;16.274;2023-03-01T00:21:36;172.68;;;85.90;;
36441;SDS011;64346;50.820;16.274;2023-03-01T00:24:03;172.05;;;84.70;;
36441;SDS011;64346;50.820;16.274;2023-03-01T00:26:31;163.15;;;82.25;;
36441;SDS011;64346;50.820;16.274;2023-03-01T00:28:59;168.93;;;82.85;;
36441;SDS011;64346;50.820;16.274;2023-03-01T00:31:27;174.07;;;83.45;;
36441;SDS011;64346;50.820;16.274;2023-03-01T00:33:57;156.75;;;76.15;;
36441;SDS011;64346;50.820;16.274;2023-03-01T00:36:32;143.50;;;69.20;;
36441;SDS011;64346;50.820;16.274;2023-03-01T00:39:04;134.85;;;67.22;;
36441;SDS011;64346;50.820;16.274;2023-03-01T00:41:32;124.68;;;59.15;;
36441;SDS011;64346;50.820;16.274;2023-03-01T00:44:02;125.85;;;59.67;;
36441;SDS011;64346;50.820;16.274;2023-03-01T00:46:30;124.72;;;57.63;;
36441;SDS011;64346;50.820;16.274;2023-03-01T00:48:58;117.85;;;59.03;;
36441;SDS011;64346;50.820;16.274;2023-03-01T00:51:27;126.18;;;59.95;;
36441;SDS011;64346;50.820;16.274;2023-03-01T00:53:58;117.93;;;58.80;;
36441;SDS011;64346;50.820;16.274;2023-03-01T00:56:31;130.93;;;60.38;;
36441;SDS011;64346;50.820;16.274;2023-03-01T00:59:02;114.55;;;55.70;;
36441;SDS011;64346;50.820;16.274;2023-03-01T01:01:30;105.05;;;53.33;;
36441;SDS011;64346;50.820;16.274;2023-03-01T01:03:59;116.82;;;59.22;;
36441;SDS011;64346;50.820;16.274;2023-03-01T01:06:32;118.82;;;58.55;;
36441;SDS011;64346;50.820;16.274;2023-03-01T01:09:02;120.97;;;59.95;;
36441;SDS011;64346;50.820;16.274;2023-03-01T01:11:31;131.25;;;64.88;;
36441;SDS011;64346;50.820;16.274;2023-03-01T01:14:00;133.57;;;66.07;;
36441;SDS011;64346;50.820;16.274;2023-03-01T01:16:30;123.13;;;60.90;;
36441;SDS011;64346;50.820;16.274;2023-03-01T01:18:59;144.20;;;71.82;;
36441;SDS011;64346;50.820;16.274;2023-03-01T01:21:27;125.85;;;64.20;;
36441;SDS011;64346;50.820;16.274;2023-03-01T01:23:55;147.48;;;74.93;;
36441;SDS011;64346;50.820;16.274;2023-03-01T01:26:27;162.60;;;75.60;;
36441;SDS011;64346;50.820;16.274;2023-03-01T01:28:57;130.25;;;66.00;;
36441;SDS011;64346;50.820;16.274;2023-03-01T01:31:28;162.93;;;80.88;;
36441;SDS011;64346;50.820;16.274;2023-03-01T01:33:59;144.43;;;70.95;;
36441;SDS011;64346;50.820;16.274;2023-03-01T01:36:31;154.88;;;73.72;;
36441;SDS011;64346;50.820;16.274;2023-03-01T01:39:01;144.57;;;69.43;;
36441;SDS011;64346;50.820;16.274;2023-03-01T01:41:31;134.85;;;68.63;;
36441;SDS011;64346;50.820;16.274;2023-03-01T01:49:29;130.35;;;67.03;;
36441;SDS011;64346;50.820;16.274;2023-03-01T01:54:45;116.80;;;59.13;;
36441;SDS011;64346;50.820;16.274;2023-03-01T01:57:16;113.97;;;56.90;;
36441;SDS011;64346;50.820;16.274;2023-03-01T01:59:52;115.50;;;58.63;;
36441;SDS011;64346;50.820;16.274;2023-03-01T02:08:25;109.78;;;52.95;;
36441;SDS011;64346;50.820;16.274;2023-03-01T02:10:55;105.15;;;54.35;;
36441;SDS011;64346;50.820;16.274;2023-03-01T02:13:23;113.40;;;58.20;;
36441;SDS011;64346;50.820;16.274;2023-03-01T02:15:51;115.28;;;57.72;;
36441;SDS011;64346;50.820;16.274;2023-03-01T02:18:18;118.45;;;60.00;;
36441;SDS011;64346;50.820;16.274;2023-03-01T02:20:54;114.00;;;57.70;;
36441;SDS011;64346;50.820;16.274;2023-03-01T02:23:42;124.93;;;60.08;;
36441;SDS011;64346;50.820;16.274;2023-03-01T02:28:52;119.72;;;62.22;;
36441;SDS011;64346;50.820;16.274;2023-03-01T02:31:19;119.90;;;61.28;;
36441;SDS011;64346;50.820;16.274;2023-03-01T02:33:48;127.70;;;64.95;;
36441;SDS011;64346;50.820;16.274;2023-03-01T02:36:20;121.70;;;60.22;;
36441;SDS011;64346;50.820;16.274;2023-03-01T02:38:56;111.00;;;56.13;;
36441;SDS011;64346;50.820;16.274;2023-03-01T02:41:26;122.53;;;61.40;;
36441;SDS011;64346;50.820;16.274;2023-03-01T02:43:57;114.85;;;58.70;;
36441;SDS011;64346;50.820;16.274;2023-03-01T02:46:25;111.47;;;57.95;;
36441;SDS011;64346;50.820;16.274;2023-03-01T02:48:56;118.18;;;58.05;;
36441;SDS011;64346;50.820;16.274;2023-03-01T02:51:41;114.00;;;58.67;;
36441;SDS011;64346;50.820;16.274;2023-03-01T02:56:51;134.27;;;65.63;;
36441;SDS011;64346;50.820;16.274;2023-03-01T02:59:20;133.75;;;67.80;;
36441;SDS011;64346;50.820;16.274;2023-03-01T03:01:49;126.03;;;65.20;;
36441;SDS011;64346;50.820;16.274;2023-03-01T03:04:16;123.15;;;62.88;;
36441;SDS011;64346;50.820;16.274;2023-03-01T03:06:46;113.72;;;58.58;;
36441;SDS011;64346;50.820;16.274;2023-03-01T03:09:15;116.80;;;59.50;;
36441;SDS011;64346;50.820;16.274;2023-03-01T03:11:44;109.80;;;60.55;;
36441;SDS011;64346;50.820;16.274;2023-03-01T03:14:12;125.85;;;62.15;;
36441;SDS011;64346;50.820;16.274;2023-03-01T03:16:42;132.98;;;64.82;;
36441;SDS011;64346;50.820;16.274;2023-03-01T03:19:12;130.90;;;65.43;;
36441;SDS011;64346;50.820;16.274;2023-03-01T03:21:40;134.57;;;67.35;;
36441;SDS011;64346;50.820;16.274;2023-03-01T03:24:07;129.85;;;65.05;;
36441;SDS011;64346;50.820;16.274;2023-03-01T03:26:39;124.65;;;60.90;;
36441;SDS011;64346;50.820;16.274;2023-03-01T03:29:06;113.18;;;59.75;;
36441;SDS011;64346;50.820;16.274;2023-03-01T03:31:36;118.65;;;60.15;;
36441;SDS011;64346;50.820;16.274;2023-03-01T03:34:08;117.32;;;58.08;;
36441;SDS011;64346;50.820;16.274;2023-03-01T03:36:35;104.45;;;54.50;;
36441;SDS011;64346;50.820;16.274;2023-03-01T03:39:02;109.45;;;56.05;;
36441;SDS011;64346;50.820;16.274;2023-03-01T03:41:30;111.07;;;56.47;;
36441;SDS011;64346;50.820;16.274;2023-03-01T03:43:57;107.82;;;53.22;;
36441;SDS011;64346;50.820;16.274;2023-03-01T03:46:24;110.40;;;54.95;;
36441;SDS011;64346;50.820;16.274;2023-03-01T03:48:51;103.80;;;53.80;;
36441;SDS011;64346;50.820;16.274;2023-03-01T03:51:19;106.85;;;50.78;;
36441;SDS011;64346;50.820;16.274;2023-03-01T03:53:46;100.78;;;50.30;;
36441;SDS011;64346;50.820;16.274;2023-03-01T03:56:15;105.63;;;53.40;;
36441;SDS011;64346;50.820;16.274;2023-03-01T03:58:43;101.90;;;50.90;;
36441;SDS011;64346;50.820;16.274;2023-03-01T06:05:32;184.07;;;88.72;;
36441;SDS011;64346;50.820;16.274;2023-03-01T06:08:00;157.70;;;75.93;;
36441;SDS011;64346;50.820;16.274;2023-03-01T06:10:27;156.65;;;74.32;;
36441;SDS011;64346;50.820;16.274;2023-03-01T06:12:58;164.20;;;75.95;;
36441;SDS011;64346;50.820;16.274;2023-03-01T06:15:25;149.35;;;71.53;;
36441;SDS011;64346;50.820;16.274;2023-03-01T06:17:54;138.05;;;64.45;;
36441;SDS011;64346;50.820;16.274;2023-03-01T06:20:25;119.47;;;59.40;;
36441;SDS011;64346;50.820;16.274;2023-03-01T06:22:54;140.93;;;66.50;;
36441;SDS011;64346;50.820;16.274;2023-03-01T06:25:23;127.40;;;65.88;;
36441;SDS011;64346;50.820;16.274;2023-03-01T06:27:51;135.23;;;66.00;;
36441;SDS011;64346;50.820;16.274;2023-03-01T06:30:19;120.57;;;62.75;;
36441;SDS011;64346;50.820;16.274;2023-03-01T06:32:50;126.45;;;63.33;;
36441;SDS011;64346;50.820;16.274;2023-03-01T06:35:19;105.35;;;54.53;;
36441;SDS011;64346;50.820;16.274;2023-03-01T06:37:47;105.10;;;58.47;;
36441;SDS011;64346;50.820;16.274;2023-03-01T06:40:17;100.53;;;55.55;;
36441;SDS011;64346;50.820;16.274;2023-03-01T06:42:49;97.13;;;53.72;;
36441;SDS011;64346;50.820;16.274;2023-03-01T06:45:20;100.63;;;53.47;;
36441;SDS011;64346;50.820;16.274;2023-03-01T06:47:48;102.60;;;58.60;;
36441;SDS011;64346;50.820;16.274;2023-03-01T06:50:15;99.97;;;57.20;;
36441;SDS011;64346;50.820;16.274;2023-03-01T06:52:44;100.30;;;57.83;;
36441;SDS011;64346;50.820;16.274;2023-03-01T06:55:11;93.05;;;59.33;;
36441;SDS011;64346;50.820;16.274;2023-03-01T06:57:39;98.63;;;59.55;;
36441;SDS011;64346;50.820;16.274;2023-03-01T07:00:09;97.15;;;59.80;;
36441;SDS011;64346;50.820;16.274;2023-03-01T07:02:37;96.85;;;62.55;;
36441;SDS011;64346;50.820;16.274;2023-03-01T07:05:04;97.38;;;62.45;;
36441;SDS011;64346;50.820;16.274;2023-03-01T07:07:34;101.15;;;66.03;;
36441;SDS011;64346;50.820;16.274;2023-03-01T07:10:01;109.13;;;68.00;;
36441;SDS011;64346;50.820;16.274;2023-03-01T07:12:31;110.03;;;70.13;;
36441;SDS011;64346;50.820;16.274;2023-03-01T07:14:58;100.55;;;66.00;;
36441;SDS011;64346;50.820;16.274;2023-03-01T07:17:28;98.72;;;64.57;;
36441;SDS011;64346;50.820;16.274;2023-03-01T07:19:56;101.20;;;64.75;;
36441;SDS011;64346;50.820;16.274;2023-03-01T07:22:23;101.00;;;63.53;;
36441;SDS011;64346;50.820;16.274;2023-03-01T07:24:50;104.75;;;68.93;;
36441;SDS011;64346;50.820;16.274;2023-03-01T07:27:20;104.20;;;70.13;;
36441;SDS011;64346;50.820;16.274;2023-03-01T07:29:50;106.65;;;71.72;;
36441;SDS011;64346;50.820;16.274;2023-03-01T07:32:20;107.25;;;73.60;;
36441;SDS011;64346;50.820;16.274;2023-03-01T07:34:48;108.38;;;73.53;;
36441;SDS011;64346;50.820;16.274;2023-03-01T07:37:20;111.43;;;78.45;;
36441;SDS011;64346;50.820;16.274;2023-03-01T07:39:49;104.80;;;77.27;;
36441;SDS011;64346;50.820;16.274;2023-03-01T07:42:16;106.22;;;78.10;;
36441;SDS011;64346;50.820;16.274;2023-03-01T07:44:46;106.57;;;77.55;;
36441;SDS011;64346;50.820;16.274;2023-03-01T07:47:17;104.60;;;76.32;;
36441;SDS011;64346;50.820;16.274;2023-03-01T07:49:44;100.68;;;72.60;;
36441;SDS011;64346;50.820;16.274;2023-03-01T07:52:11;80.05;;;63.47;;
36441;SDS011;64346;50.820;16.274;2023-03-01T07:54:38;71.60;;;53.78;;
36441;SDS011;64346;50.820;16.274;2023-03-01T07:57:09;56.30;;;43.70;;
36441;SDS011;64346;50.820;16.274;2023-03-01T07:59:36;58.22;;;44.95;;
36441;SDS011;64346;50.820;16.274;2023-03-01T08:02:04;63.30;;;46.50;;
36441;SDS011;64346;50.820;16.274;2023-03-01T08:04:31;71.35;;;55.28;;
36441;SDS011;64346;50.820;16.274;2023-03-01T08:06:59;60.58;;;43.42;;
36441;SDS011;64346;50.820;16.274;2023-03-01T08:09:26;54.58;;;40.97;;
36441;SDS011;64346;50.820;16.274;2023-03-01T08:11:55;47.85;;;36.83;;
36441;SDS011;64346;50.820;16.274;2023-03-01T08:14:25;37.88;;;30.58;;
36441;SDS011;64346;50.820;16.274;2023-03-01T08:16:52;44.60;;;33.25;;
36441;SDS011;64346;50.820;16.274;2023-03-01T08:19:19;44.42;;;34.38;;
36441;SDS011;64346;50.820;16.274;2023-03-01T08:21:49;43.75;;;36.17;;
36441;SDS011;64346;50.820;16.274;2023-03-01T08:24:18;47.00;;;36.47;;
36441;SDS011;64346;50.820;16.274;2023-03-01T08:29:15;51.38;;;39.67;;
36441;SDS011;64346;50.820;16.274;2023-03-01T08:31:43;47.97;;;36.72;;
36441;SDS011;64346;50.820;16.274;2023-03-01T08:34:11;45.97;;;34.75;;
36441;SDS011;64346;50.820;16.274;2023-03-01T08:36:43;34.60;;;27.08;;
36441;SDS011;64346;50.820;16.274;2023-03-01T08:39:13;38.58;;;29.42;;
36441;SDS011;64346;50.820;16.274;2023-03-01T08:41:43;36.00;;;29.25;;
36441;SDS011;64346;50.820;16.274;2023-03-01T08:44:14;34.55;;;28.20;;
36441;SDS011;64346;50.820;16.274;2023-03-01T08:46:42;34.20;;;27.58;;
36441;SDS011;64346;50.820;16.274;2023-03-01T08:49:12;32.65;;;25.42;;
36441;SDS011;64346;50.820;16.274;2023-03-01T08:51:42;34.85;;;25.25;;
36441;SDS011;64346;50.820;16.274;2023-03-01T08:54:14;33.42;;;27.58;;
36441;SDS011;64346;50.820;16.274;2023-03-01T08:56:48;30.60;;;24.70;;
36441;SDS011;64346;50.820;16.274;2023-03-01T08:59:16;30.58;;;24.23;;
36441;SDS011;64346;50.820;16.274;2023-03-01T09:01:44;32.80;;;25.77;;
36441;SDS011;64346;50.820;16.274;2023-03-01T09:04:14;34.63;;;26.65;;
36441;SDS011;64346;50.820;16.274;2023-03-01T09:06:42;30.48;;;25.00;;
36441;SDS011;64346;50.820;16.274;2023-03-01T09:09:13;31.17;;;25.48;;
36441;SDS011;64346;50.820;16.274;2023-03-01T09:14:10;31.70;;;27.60;;
36441;SDS011;64346;50.820;16.274;2023-03-01T09:16:40;27.95;;;23.58;;
36441;SDS011;64346;50.820;16.274;2023-03-01T09:19:10;27.00;;;22.33;;
36441;SDS011;64346;50.820;16.274;2023-03-01T09:21:40;27.50;;;21.33;;
36441;SDS011;64346;50.820;16.274;2023-03-01T09:24:11;26.98;;;23.08;;
36441;SDS011;64346;50.820;16.274;2023-03-01T09:26:40;26.17;;;21.85;;
36441;SDS011;64346;50.820;16.274;2023-03-01T09:29:08;28.33;;;21.88;;
36441;SDS011;64346;50.820;16.274;2023-03-01T09:31:35;24.73;;;20.65;;
36441;SDS011;64346;50.820;16.274;2023-03-01T09:34:02;25.88;;;19.20;;
36441;SDS011;64346;50.820;16.274;2023-03-01T09:36:32;25.30;;;20.40;;
36441;SDS011;64346;50.820;16.274;2023-03-01T09:39:00;24.95;;;19.15;;
36441;SDS011;64346;50.820;16.274;2023-03-01T09:46:47;24.50;;;18.95;;
36441;SDS011;64346;50.820;16.274;2023-03-01T09:49:17;25.10;;;20.90;;
36441;SDS011;64346;50.820;16.274;2023-03-01T09:52:01;24.67;;;20.25;;
36441;SDS011;64346;50.820;16.274;2023-03-01T09:54:46;25.35;;;21.02;;
36441;SDS011;64346;50.820;16.274;2023-03-01T10:05:19;24.17;;;19.92;;
36441;SDS011;64346;50.820;16.274;2023-03-01T10:07:54;24.48;;;20.92;;
36441;SDS011;64346;50.820;16.274;2023-03-01T10:10:33;26.33;;;22.10;;
36441;SDS011;64346;50.820;16.274;2023-03-01T10:13:21;24.70;;;20.08;;
36441;SDS011;64346;50.820;16.274;2023-03-01T10:16:13;23.85;;;19.55;;
36441;SDS011;64346;50.820;16.274;2023-03-01T10:19:04;24.00;;;20.63;;
36441;SDS011;64346;50.820;16.274;2023-03-01T10:21:38;24.38;;;19.73;;
36441;SDS011;64346;50.820;16.274;2023-03-01T10:24:12;25.73;;;19.42;;
36441;SDS011;64346;50.820;16.274;2023-03-01T10:29:17;25.75;;;20.10;;
36441;SDS011;64346;50.820;16.274;2023-03-01T10:31:50;27.63;;;19.90;;
36441;SDS011;64346;50.820;16.274;2023-03-01T10:34:28;25.92;;;20.25;;
36441;SDS011;64346;50.820;16.274;2023-03-01T10:37:01;26.02;;;20.98;;
36441;SDS011;64346;50.820;16.274;2023-03-01T10:39:37;27.88;;;21.85;;
36441;SDS011;64346;50.820;16.274;2023-03-01T10:42:33;25.98;;;20.92;;
36441;SDS011;64346;50.820;16.274;2023-03-01T10:48:05;25.77;;;21.98;;
36441;SDS011;64346;50.820;16.274;2023-03-01T10:50:32;26.02;;;21.33;;
36441;SDS011;64346;50.820;16.274;2023-03-01T10:53:01;25.67;;;21.05;;
36441;SDS011;64346;50.820;16.274;2023-03-01T10:55:33;28.17;;;21.73;;
36441;SDS011;64346;50.820;16.274;2023-03-01T10:58:11;28.15;;;23.10;;
36441;SDS011;64346;50.820;16.274;2023-03-01T11:08:42;27.08;;;20.63;;
36441;SDS011;64346;50.820;16.274;2023-03-01T11:17:00;22.92;;;18.00;;
36441;SDS011;64346;50.820;16.274;2023-03-01T11:19:37;36.70;;;28.30;;
36441;SDS011;64346;50.820;16.274;2023-03-01T11:27:21;21.80;;;17.70;;
36441;SDS011;64346;50.820;16.274;2023-03-01T11:30:05;20.67;;;16.27;;
36441;SDS011;64346;50.820;16.274;2023-03-01T11:32:43;21.50;;;17.13;;
36441;SDS011;64346;50.820;16.274;2023-03-01T11:35:18;21.83;;;17.05;;
36441;SDS011;64346;50.820;16.274;2023-03-01T11:38:04;21.73;;;17.35;;
36441;SDS011;64346;50.820;16.274;2023-03-01T11:40:44;21.05;;;16.20;;
36441;SDS011;64346;50.820;16.274;2023-03-01T11:52:36;28.58;;;21.63;;
36441;SDS011;64346;50.820;16.274;2023-03-01T11:57:39;33.90;;;23.40;;
36441;SDS011;64346;50.820;16.274;2023-03-01T12:08:49;35.88;;;22.98;;
36441;SDS011;64346;50.820;16.274;2023-03-01T12:11:28;40.33;;;23.45;;
36441;SDS011;64346;50.820;16.274;2023-03-01T12:22:43;37.95;;;23.25;;
36441;SDS011;64346;50.820;16.274;2023-03-01T12:40:31;40.67;;;23.95;;
36441;SDS011;64346;50.820;16.274;2023-03-01T12:53:34;40.67;;;22.95;;
36441;SDS011;64346;50.820;16.274;2023-03-01T12:56:25;40.00;;;24.02;;
36441;SDS011;64346;50.820;16.274;2023-03-01T13:02:15;40.53;;;24.92;;
36441;SDS011;64346;50.820;16.274;2023-03-01T13:28:36;51.47;;;29.98;;
36441;SDS011;64346;50.820;16.274;2023-03-01T13:46:58;44.47;;;25.95;;
36441;SDS011;64346;50.820;16.274;2023-03-01T13:49:36;41.35;;;24.85;;
36441;SDS011;64346;50.820;16.274;2023-03-01T13:55:00;42.88;;;24.42;;
36441;SDS011;64346;50.820;16.274;2023-03-01T13:57:33;45.33;;;26.05;;
36441;SDS011;64346;50.820;16.274;2023-03-01T14:00:03;42.33;;;25.20;;
36441;SDS011;64346;50.820;16.274;2023-03-01T14:02:31;43.30;;;25.13;;
36441;SDS011;64346;50.820;16.274;2023-03-01T14:04:58;38.78;;;23.45;;
36441;SDS011;64346;50.820;16.274;2023-03-01T14:07:29;43.95;;;24.85;;
36441;SDS011;64346;50.820;16.274;2023-03-01T14:09:57;37.28;;;23.75;;
36441;SDS011;64346;50.820;16.274;2023-03-01T14:15:42;42.13;;;23.83;;
36441;SDS011;64346;50.820;16.274;2023-03-01T14:18:29;41.63;;;24.13;;
36441;SDS011;64346;50.820;16.274;2023-03-01T14:21:08;39.22;;;21.98;;
36441;SDS011;64346;50.820;16.274;2023-03-01T14:23:40;40.22;;;23.05;;
36441;SDS011;64346;50.820;16.274;2023-03-01T14:26:07;36.13;;;21.38;;
36441;SDS011;64346;50.820;16.274;2023-03-01T14:28:38;37.58;;;20.83;;
36441;SDS011;64346;50.820;16.274;2023-03-01T14:34:18;35.47;;;22.73;;
36441;SDS011;64346;50.820;16.274;2023-03-01T14:36:47;43.33;;;25.83;;
36441;SDS011;64346;50.820;16.274;2023-03-01T14:39:16;39.90;;;22.77;;
36441;SDS011;64346;50.820;16.274;2023-03-01T14:41:52;38.58;;;23.67;;
36441;SDS011;64346;50.820;16.274;2023-03-01T14:44:30;42.28;;;22.70;;
36441;SDS011;64346;50.820;16.274;2023-03-01T14:46:57;38.40;;;22.63;;
36441;SDS011;64346;50.820;16.274;2023-03-01T14:49:29;42.35;;;23.67;;
36441;SDS011;64346;50.820;16.274;2023-03-01T14:57:20;42.85;;;24.73;;
36441;SDS011;64346;50.820;16.274;2023-03-01T14:59:52;44.35;;;24.50;;
36441;SDS011;64346;50.820;16.274;2023-03-01T15:02:25;41.95;;;24.45;;
36441;SDS011;64346;50.820;16.274;2023-03-01T15:04:56;40.90;;;23.40;;
36441;SDS011;64346;50.820;16.274;2023-03-01T15:07:29;42.78;;;23.98;;
36441;SDS011;64346;50.820;16.274;2023-03-01T15:09:59;48.95;;;27.10;;
36441;SDS011;64346;50.820;16.274;2023-03-01T15:14:56;42.35;;;25.05;;
36441;SDS011;64346;50.820;16.274;2023-03-01T15:17:37;45.70;;;26.10;;
36441;SDS011;64346;50.820;16.274;2023-03-01T15:20:06;45.47;;;26.75;;
36441;SDS011;64346;50.820;16.274;2023-03-01T15:22:44;49.20;;;26.00;;
36441;SDS011;64346;50.820;16.274;2023-03-01T15:25:14;46.35;;;27.02;;
36441;SDS011;64346;50.820;16.274;2023-03-01T15:27:46;47.03;;;25.90;;
36441;SDS011;64346;50.820;16.274;2023-03-01T15:30:18;47.65;;;26.13;;
36441;SDS011;64346;50.820;16.274;2023-03-01T15:32:46;47.95;;;27.02;;
36441;SDS011;64346;50.820;16.274;2023-03-01T15:38:27;45.88;;;26.65;;
36441;SDS011;64346;50.820;16.274;2023-03-01T15:41:25;46.07;;;26.27;;
36441;SDS011;64346;50.820;16.274;2023-03-01T15:43:58;42.60;;;26.60;;
36441;SDS011;64346;50.820;16.274;2023-03-01T15:46:44;44.72;;;24.48;;
36441;SDS011;64346;50.820;16.274;2023-03-01T15:49:34;48.25;;;25.65;;
36441;SDS011;64346;50.820;16.274;2023-03-01T15:52:28;48.80;;;26.65;;
36441;SDS011;64346;50.820;16.274;2023-03-01T15:55:14;44.95;;;26.45;;
36441;SDS011;64346;50.820;16.274;2023-03-01T16:00:38;50.65;;;28.33;;
36441;SDS011;64346;50.820;16.274;2023-03-01T16:03:23;44.90;;;27.20;;
36441;SDS011;64346;50.820;16.274;2023-03-01T16:05:51;45.15;;;26.20;;
36441;SDS011;64346;50.820;16.274;2023-03-01T16:08:21;49.85;;;28.33;;
36441;SDS011;64346;50.820;16.274;2023-03-01T16:10:48;53.15;;;30.23;;
36441;SDS011;64346;50.820;16.274;2023-03-01T16:13:16;50.72;;;29.30;;
36441;SDS011;64346;50.820;16.274;2023-03-01T16:15:45;49.28;;;28.92;;
36441;SDS011;64346;50.820;16.274;2023-03-01T16:18:13;47.55;;;28.25;;
36441;SDS011;64346;50.820;16.274;2023-03-01T16:20:43;48.70;;;27.90;;
36441;SDS011;64346;50.820;16.274;2023-03-01T16:23:11;46.28;;;27.80;;
36441;SDS011;64346;50.820;16.274;2023-03-01T16:25:38;50.35;;;28.20;;
36441;SDS011;64346;50.820;16.274;2023-03-01T16:28:05;51.95;;;30.48;;
36441;SDS011;64346;50.820;16.274;2023-03-01T16:30:38;53.20;;;28.80;;
36441;SDS011;64346;50.820;16.274;2023-03-01T16:33:08;61.35;;;35.78;;
36441;SDS011;64346;50.820;16.274;2023-03-01T16:35:56;58.67;;;29.73;;
36441;SDS011;64346;50.820;16.274;2023-03-01T16:38:26;59.25;;;31.02;;
36441;SDS011;64346;50.820;16.274;2023-03-01T16:40:53;54.38;;;31.88;;
36441;SDS011;64346;50.820;16.274;2023-03-01T16:43:21;57.70;;;31.45;;
36441;SDS011;64346;50.820;16.274;2023-03-01T16:45:48;66.32;;;35.47;;
36441;SDS011;64346;50.820;16.274;2023-03-01T16:48:16;63.63;;;34.97;;
36441;SDS011;64346;50.820;16.274;2023-03-01T16:50:43;67.15;;;36.83;;
36441;SDS011;64346;50.820;16.274;2023-03-01T16:53:10;61.55;;;36.63;;
36441;SDS011;64346;50.820;16.274;2023-03-01T16:55:38;59.28;;;34.88;;
36441;SDS011;64346;50.820;16.274;2023-03-01T16:58:07;67.47;;;37.08;;
36441;SDS011;64346;50.820;16.274;2023-03-01T17:00:34;73.07;;;37.67;;
36441;SDS011;64346;50.820;16.274;2023-03-01T17:03:02;62.10;;;34.17;;
36441;SDS011;64346;50.820;16.274;2023-03-01T17:05:29;61.03;;;31.45;;
36441;SDS011;64346;50.820;16.274;2023-03-01T17:07:56;56.13;;;33.13;;
36441;SDS011;64346;50.820;16.274;2023-03-01T17:10:26;76.68;;;38.90;;
36441;SDS011;64346;50.820;16.274;2023-03-01T17:12:53;74.00;;;40.50;;
36441;SDS011;64346;50.820;16.274;2023-03-01T17:15:20;86.38;;;42.20;;
36441;SDS011;64346;50.820;16.274;2023-03-01T17:17:48;75.05;;;39.15;;
36441;SDS011;64346;50.820;16.274;2023-03-01T17:20:15;79.63;;;40.85;;
36441;SDS011;64346;50.820;16.274;2023-03-01T17:22:43;82.65;;;40.95;;
36441;SDS011;64346;50.820;16.274;2023-03-01T17:25:10;87.40;;;41.45;;
36441;SDS011;64346;50.820;16.274;2023-03-01T17:27:40;84.32;;;42.38;;
36441;SDS011;64346;50.820;16.274;2023-03-01T17:30:08;78.78;;;44.15;;
36441;SDS011;64346;50.820;16.274;2023-03-01T17:32:36;85.50;;;43.60;;
36441;SDS011;64346;50.820;16.274;2023-03-01T17:35:07;83.35;;;42.75;;
36441;SDS011;64346;50.820;16.274;2023-03-01T17:37:38;83.57;;;44.17;;
36441;SDS011;64346;50.820;16.274;2023-03-01T17:40:08;83.30;;;46.22;;
36441;SDS011;64346;50.820;16.274;2023-03-01T17:42:36;86.88;;;45.90;;
36441;SDS011;64346;50.820;16.274;2023-03-01T17:45:03;93.97;;;46.83;;
36441;SDS011;64346;50.820;16.274;2023-03-01T17:47:34;85.07;;;45.38;;
36441;SDS011;64346;50.820;16.274;2023-03-01T17:50:01;94.50;;;48.38;;
36441;SDS011;64346;50.820;16.274;2023-03-01T17:52:31;158.00;;;77.03;;
36441;SDS011;64346;50.820;16.274;2023-03-01T17:54:58;109.57;;;55.70;;
36441;SDS011;64346;50.820;16.274;2023-03-01T17:57:28;109.38;;;54.95;;
36441;SDS011;64346;50.820;16.274;2023-03-01T17:59:57;100.97;;;51.65;;
36441;SDS011;64346;50.820;16.274;2023-03-01T18:02:27;113.15;;;56.08;;
36441;SDS011;64346;50.820;16.274;2023-03-01T18:04:57;116.50;;;57.75;;
36441;SDS011;64346;50.820;16.274;2023-03-01T18:07:25;123.38;;;62.53;;
36441;SDS011;64346;50.820;16.274;2023-03-01T18:09:52;109.10;;;55.20;;
36441;SDS011;64346;50.820;16.274;2023-03-01T18:12:23;117.88;;;58.85;;
36441;SDS011;64346;50.820;16.274;2023-03-01T18:14:50;135.18;;;68.53;;
36441;SDS011;64346;50.820;16.274;2023-03-01T18:17:19;156.88;;;78.63;;
36441;SDS011;64346;50.820;16.274;2023-03-01T18:19:49;142.27;;;70.97;;
36441;SDS011;64346;50.820;16.274;2023-03-01T18:22:17;144.68;;;73.65;;
36441;SDS011;64346;50.820;16.274;2023-03-01T18:24:44;123.07;;;62.72;;
36441;SDS011;64346;50.820;16.274;2023-03-01T18:27:14;125.85;;;60.85;;
36441;SDS011;64346;50.820;16.274;2023-03-01T18:29:41;126.28;;;64.78;;
36441;SDS011;64346;50.820;16.274;2023-03-01T18:32:11;131.40;;;65.60;;
36441;SDS011;64346;50.820;16.274;2023-03-01T18:34:38;137.82;;;69.03;;
36441;SDS011;64346;50.820;16.274;2023-03-01T18:37:06;136.98;;;69.15;;
36441;SDS011;64346;50.820;16.274;2023-03-01T18:39:36;137.63;;;69.90;;
36441;SDS011;64346;50.820;16.274;2023-03-01T18:42:04;219.52;;;115.50;;
36441;SDS011;64346;50.820;16.274;2023-03-01T18:44:31;224.30;;;112.88;;
36441;SDS011;64346;50.820;16.274;2023-03-01T18:47:01;225.95;;;110.32;;
36441;SDS011;64346;50.820;16.274;2023-03-01T18:49:28;219.20;;;108.25;;
36441;SDS011;64346;50.820;16.274;2023-03-01T18:51:55;196.80;;;99.35;;
36441;SDS011;64346;50.820;16.274;2023-03-01T18:54:23;165.70;;;83.50;;
36441;SDS011;64346;50.820;16.274;2023-03-01T18:56:53;160.10;;;79.47;;
36441;SDS011;64346;50.820;16.274;2023-03-01T18:59:22;151.70;;;78.85;;
36441;SDS011;64346;50.820;16.274;2023-03-01T19:01:50;147.95;;;77.68;;
36441;SDS011;64346;50.820;16.274;2023-03-01T19:04:20;151.27;;;77.15;;
36441;SDS011;64346;50.820;16.274;2023-03-01T19:06:48;155.23;;;76.13;;
36441;SDS011;64346;50.820;16.274;2023-03-01T19:09:15;152.05;;;73.90;;
36441;SDS011;64346;50.820;16.274;2023-03-01T19:11:42;140.35;;;72.35;;
36441;SDS011;64346;50.820;16.274;2023-03-01T19:14:09;145.25;;;73.50;;
36441;SDS011;64346;50.820;16.274;2023-03-01T19:16:39;156.80;;;80.22;;
36441;SDS011;64346;50.820;16.274;2023-03-01T19:19:09;152.20;;;75.50;;
36441;SDS011;64346;50.820;16.274;2023-03-01T19:21:39;131.77;;;63.67;;
36441;SDS011;64346;50.820;16.274;2023-03-01T19:24:09;126.40;;;62.80;;
36441;SDS011;64346;50.820;16.274;2023-03-01T19:26:41;131.27;;;66.28;;
36441;SDS011;64346;50.820;16.274;2023-03-01T19:29:08;147.13;;;71.15;;
36441;SDS011;64346;50.820;16.274;2023-03-01T19:31:38;116.80;;;60.17;;